Time,TemperatureF,DewpointF,PressureIn,WindDirection,WindDirectionDegrees,WindSpeedMPH,WindSpeedGustMPH,Humidity,HourlyPrecipIn,Conditions,Clouds,dailyrainin,SoftwareType,DateUTC
2013-06-27 00:03:00,70.8,68.0,29.85,ESE,108,0.0,1.0,89,0.00,,,0.00,weatherlink.com 1.10,2013-06-27 04:03:00,
2013-06-27 00:18:00,70.1,67.0,29.85,ESE,107,0.0,0.0,90,0.00,,,0.00,weatherlink.com 1.10,2013-06-27 04:18:00,
2013-06-27 00:33:00,69.9,67.0,29.85,SSE,159,0.0,1.0,91,0.00,,,0.00,weatherlink.com 1.10,2013-06-27 04:33:00,
2013-06-27 00:48:00,69.4,67.0,29.84,SSE,159,0.0,0.0,91,0.00,,,0.00,weatherlink.com 1.10,2013-06-27 04:48:00,
2013-06-27 01:03:00,69.2,67.0,29.85,South,186,0.0,0.0,92,0.00,,,0.00,weatherlink.com 1.10,2013-06-27 05:03:00,
2013-06-27 01:18:00,69.1,67.0,29.84,ESE,113,0.0,1.0,92,0.00,,,0.00,weatherlink.com 1.10,2013-06-27 05:18:00,
2013-06-27 01:33:00,69.2,67.0,29.84,SE,139,0.0,1.0,92,0.00,,,0.00,weatherlink.com 1.10,2013-06-27 05:33:00,
2013-06-27 01:48:00,68.9,67.0,29.84,SSE,165,0.0,1.0,92,0.00,,,0.00,weatherlink.com 1.10,2013-06-27 05:48:00,
2013-06-27 02:03:00,68.4,66.0,29.84,WSW,246,0.0,1.0,93,0.00,,,0.00,weatherlink.com 1.10,2013-06-27 06:03:00,
2013-06-27 02:18:00,68.2,66.0,29.84,WSW,255,0.0,1.0,93,0.00,,,0.00,weatherlink.com 1.10,2013-06-27 06:18:00,
2013-06-27 02:34:00,67.8,66.0,29.84,West,262,0.0,0.0,94,0.00,,,0.00,weatherlink.com 1.10,2013-06-27 06:34:00,
2013-06-27 02:49:00,67.7,66.0,29.84,North,354,1.0,1.0,94,0.00,,,0.00,weatherlink.com 1.10,2013-06-27 06:49:00,
2013-06-27 03:04:00,-999.0,-99.9,29.83,North,-999,-999.0,-999.0,-999,0.00,,,0.00,weatherlink.com 1.10,2013-06-27 07:04:00,
2013-06-27 03:19:00,-999.0,-99.9,29.82,North,-999,-999.0,-999.0,-999,0.00,,,0.00,weatherlink.com 1.10,2013-06-27 07:19:00,
2013-06-27 03:34:00,-999.0,-99.9,29.82,North,-999,-999.0,-999.0,-999,0.00,,,0.00,weatherlink.com 1.10,2013-06-27 07:34:00,
2013-06-27 03:49:00,-999.0,-99.9,29.81,North,-999,-999.0,-999.0,-999,0.00,,,0.00,weatherlink.com 1.10,2013-06-27 07:49:00,
2013-06-27 04:04:00,-999.0,-99.9,29.80,North,-999,-999.0,-999.0,-999,0.00,,,0.00,weatherlink.com 1.10,2013-06-27 08:04:00,
2013-06-27 04:19:00,-999.0,-99.9,29.80,North,-999,-999.0,-999.0,-999,0.00,,,0.00,weatherlink.com 1.10,2013-06-27 08:19:00,
2013-06-27 04:34:00,-999.0,-99.9,29.80,North,-999,-999.0,-999.0,-999,0.00,,,0.00,weatherlink.com 1.10,2013-06-27 08:34:00,
2013-06-27 04:49:00,-999.0,-99.9,29.80,North,-999,-999.0,-999.0,-999,0.00,,,0.00,weatherlink.com 1.10,2013-06-27 08:49:00,
2013-06-27 05:04:00,-999.0,-99.9,29.80,North,-999,-999.0,-999.0,-999,0.00,,,0.00,weatherlink.com 1.10,2013-06-27 09:04:00,
2013-06-27 05:19:00,-999.0,-99.9,29.80,North,-999,-999.0,-999.0,-999,0.00,,,0.00,weatherlink.com 1.10,2013-06-27 09:19:00,
2013-06-27 05:34:00,-999.0,-99.9,29.81,North,-999,-999.0,-999.0,-999,0.00,,,0.00,weatherlink.com 1.10,2013-06-27 09:34:00,
2013-06-27 05:49:00,-999.0,-99.9,29.81,North,-999,-999.0,-999.0,-999,0.00,,,0.00,weatherlink.com 1.10,2013-06-27 09:49:00,
2013-06-27 06:04:00,-999.0,-99.9,29.81,North,-999,-999.0,-999.0,-999,0.00,,,0.00,weatherlink.com 1.10,2013-06-27 10:04:00,
2013-06-27 06:20:00,-999.0,-99.9,29.81,North,-999,-999.0,-999.0,-999,0.00,,,0.00,weatherlink.com 1.10,2013-06-27 10:20:00,
2013-06-27 06:35:00,-999.0,-99.9,29.81,North,-999,-999.0,-999.0,-999,0.00,,,0.00,weatherlink.com 1.10,2013-06-27 10:35:00,
2013-06-27 06:50:00,-999.0,-99.9,29.81,North,-999,-999.0,-999.0,-999,0.00,,,0.00,weatherlink.com 1.10,2013-06-27 10:50:00,
2013-06-27 07:05:00,-999.0,-99.9,29.80,North,-999,-999.0,-999.0,-999,0.00,,,0.00,weatherlink.com 1.10,2013-06-27 11:05:00,
2013-06-27 07:20:00,-999.0,-99.9,29.80,North,-999,-999.0,-999.0,-999,0.00,,,0.00,weatherlink.com 1.10,2013-06-27 11:20:00,
2013-06-27 07:35:00,-999.0,-99.9,29.80,North,-999,-999.0,-999.0,-999,0.00,,,0.00,weatherlink.com 1.10,2013-06-27 11:35:00,
2013-06-27 07:50:00,-999.0,-99.9,29.79,North,-999,-999.0,-999.0,-999,0.00,,,0.00,weatherlink.com 1.10,2013-06-27 11:50:00,
2013-06-27 08:05:00,-999.0,-99.9,29.80,North,-999,-999.0,-999.0,-999,0.00,,,0.00,weatherlink.com 1.10,2013-06-27 12:05:00,
2013-06-27 08:20:00,-999.0,-99.9,29.80,North,-999,-999.0,-999.0,-999,0.00,,,0.00,weatherlink.com 1.10,2013-06-27 12:20:00,
2013-06-27 08:35:00,-999.0,-99.9,29.79,North,-999,-999.0,-999.0,-999,0.00,,,0.00,weatherlink.com 1.10,2013-06-27 12:35:00,
2013-06-27 08:50:00,75.9,71.0,29.78,NNW,328,0.0,2.0,84,0.00,,,0.00,weatherlink.com 1.10,2013-06-27 12:50:00,
2013-06-27 09:05:00,79.1,72.0,29.78,WSW,242,0.0,1.0,78,0.00,,,0.00,weatherlink.com 1.10,2013-06-27 13:05:00,
2013-06-27 09:20:00,79.1,72.0,29.78,NW,317,0.0,2.0,78,0.00,,,0.00,weatherlink.com 1.10,2013-06-27 13:20:00,
2013-06-27 09:35:00,80.1,72.0,29.77,NNE,16,1.0,2.0,75,0.00,,,0.00,weatherlink.com 1.10,2013-06-27 13:35:00,
2013-06-27 09:50:00,81.6,71.0,29.77,SE,131,5.0,6.0,70,0.00,,,0.00,weatherlink.com 1.10,2013-06-27 13:50:00,
2013-06-27 10:05:00,82.1,71.0,29.76,SSE,155,5.0,6.0,69,0.00,,,0.00,weatherlink.com 1.10,2013-06-27 14:05:00,
2013-06-27 10:20:00,82.6,70.0,29.75,South,184,4.0,9.0,66,0.00,,,0.00,weatherlink.com 1.10,2013-06-27 14:20:00,
2013-06-27 10:35:00,81.9,69.0,29.75,ESE,103,7.0,12.0,66,0.00,,,0.00,weatherlink.com 1.10,2013-06-27 14:35:00,
2013-06-27 10:50:00,81.8,70.0,29.74,ESE,110,7.0,11.0,67,0.00,,,0.00,weatherlink.com 1.10,2013-06-27 14:50:00,
2013-06-27 11:05:00,82.4,69.0,29.73,SE,138,2.0,11.0,65,0.00,,,0.00,weatherlink.com 1.10,2013-06-27 15:05:00,
2013-06-27 11:21:00,82.6,69.0,29.73,South,176,11.0,17.0,64,0.00,,,0.00,weatherlink.com 1.10,2013-06-27 15:21:00,
2013-06-27 11:36:00,82.7,70.0,29.73,SW,229,6.0,16.0,65,0.00,,,0.00,weatherlink.com 1.10,2013-06-27 15:36:00,
2013-06-27 11:51:00,82.4,70.0,29.72,SE,132,4.0,14.0,67,0.00,,,0.00,weatherlink.com 1.10,2013-06-27 15:51:00,
2013-06-27 12:06:00,83.0,70.0,29.71,SSE,166,6.0,15.0,66,0.00,,,0.00,weatherlink.com 1.10,2013-06-27 16:06:00,
2013-06-27 12:21:00,83.7,71.0,29.70,SSE,167,3.0,12.0,66,0.00,,,0.00,weatherlink.com 1.10,2013-06-27 16:21:00,
2013-06-27 12:36:00,84.1,71.0,29.70,ESE,120,7.0,12.0,64,0.00,,,0.00,weatherlink.com 1.10,2013-06-27 16:36:00,
2013-06-27 12:51:00,84.2,70.0,29.69,ENE,58,8.0,17.0,63,0.00,,,0.00,weatherlink.com 1.10,2013-06-27 16:51:00,
2013-06-27 13:06:00,83.7,71.0,29.68,ESE,115,14.0,17.0,65,0.00,,,0.00,weatherlink.com 1.10,2013-06-27 17:06:00,
2013-06-27 13:21:00,83.3,72.0,29.68,ESE,105,13.0,-999.0,68,-99.99,,,0.00,weatherlink.com 1.10,2013-06-27 17:21:00,
2013-06-27 13:36:00,83.4,72.0,29.67,SSE,163,10.0,15.0,68,0.00,,,0.00,weatherlink.com 1.10,2013-06-27 17:36:00,
2013-06-27 13:51:00,84.6,72.0,29.66,SE,124,7.0,16.0,67,0.00,,,0.00,weatherlink.com 1.10,2013-06-27 17:51:00,
2013-06-27 14:06:00,83.7,72.0,29.66,SSE,164,6.0,22.0,67,0.00,,,0.00,weatherlink.com 1.10,2013-06-27 18:06:00,
2013-06-27 14:21:00,82.3,72.0,29.67,SE,139,6.0,18.0,70,0.00,,,0.00,weatherlink.com 1.10,2013-06-27 18:21:00,
2013-06-27 14:36:00,80.0,71.0,29.67,South,188,16.0,23.0,74,0.00,,,0.00,weatherlink.com 1.10,2013-06-27 18:36:00,
2013-06-27 14:51:00,78.4,70.0,29.68,SSW,192,6.0,20.0,75,0.00,,,0.00,weatherlink.com 1.10,2013-06-27 18:51:00,
2013-06-27 15:06:00,78.1,70.0,29.68,SE,136,3.0,16.0,76,0.00,,,0.00,weatherlink.com 1.10,2013-06-27 19:06:00,
2013-06-27 15:21:00,77.9,70.0,29.68,West,270,2.0,9.0,77,0.00,,,0.00,weatherlink.com 1.10,2013-06-27 19:21:00,
2013-06-27 15:36:00,76.2,69.0,29.68,WNW,283,10.0,18.0,79,0.00,,,0.00,weatherlink.com 1.10,2013-06-27 19:36:00,
2013-06-27 15:51:00,71.4,68.0,29.68,WSW,253,5.0,17.0,90,0.19,,,0.19,weatherlink.com 1.10,2013-06-27 19:51:00,
2013-06-27 16:06:00,70.4,68.0,29.68,West,263,0.0,9.0,93,0.24,,,0.24,weatherlink.com 1.10,2013-06-27 20:06:00,
2013-06-27 16:21:00,71.1,69.0,29.67,SSE,148,0.0,5.0,93,0.24,,,0.24,weatherlink.com 1.10,2013-06-27 20:21:00,
2013-06-27 16:51:00,73.9,71.0,29.66,WSW,242,1.0,3.0,89,0.04,,,0.25,weatherlink.com 1.10,2013-06-27 20:51:00,
2013-06-27 17:06:00,74.6,71.0,29.64,SW,224,2.0,5.0,88,0.01,,,0.25,weatherlink.com 1.10,2013-06-27 21:06:00,
2013-06-27 17:21:00,76.7,72.0,29.64,West,263,6.0,8.0,85,0.01,,,0.25,weatherlink.com 1.10,2013-06-27 21:21:00,
2013-06-27 17:36:00,77.2,72.0,29.64,WNW,293,3.0,7.0,84,0.00,,,0.25,weatherlink.com 1.10,2013-06-27 21:36:00,
2013-06-27 17:52:00,76.4,71.0,29.63,WSW,243,2.0,8.0,84,0.00,,,0.25,weatherlink.com 1.10,2013-06-27 21:52:00,
2013-06-27 18:07:00,76.9,71.0,29.64,West,275,3.0,6.0,82,0.00,,,0.25,weatherlink.com 1.10,2013-06-27 22:07:00,
2013-06-27 18:22:00,76.9,71.0,29.64,WSW,253,1.0,8.0,82,0.00,,,0.25,weatherlink.com 1.10,2013-06-27 22:22:00,
2013-06-27 18:52:00,76.6,70.0,29.64,West,263,3.0,10.0,79,0.00,,,0.25,weatherlink.com 1.10,2013-06-27 22:52:00,
2013-06-27 19:07:00,76.6,69.0,29.65,WSW,250,2.0,9.0,78,0.00,,,0.25,weatherlink.com 1.10,2013-06-27 23:07:00,
2013-06-27 19:22:00,76.4,69.0,29.65,West,262,1.0,5.0,78,0.00,,,0.25,weatherlink.com 1.10,2013-06-27 23:22:00,
2013-06-27 19:37:00,76.3,69.0,29.65,West,280,0.0,5.0,78,0.00,,,0.25,weatherlink.com 1.10,2013-06-27 23:37:00,
2013-06-27 19:52:00,76.3,69.0,29.65,SW,235,1.0,4.0,78,0.00,,,0.25,weatherlink.com 1.10,2013-06-27 23:52:00,
2013-06-27 20:22:00,76.4,69.0,29.64,SSW,201,0.0,4.0,77,0.00,,,0.25,weatherlink.com 1.10,2013-06-28 00:22:00,
2013-06-27 20:37:00,75.9,69.0,29.64,SE,144,2.0,4.0,79,0.00,,,0.25,weatherlink.com 1.10,2013-06-28 00:37:00,
2013-06-27 20:52:00,75.4,70.0,29.64,West,281,0.0,3.0,83,0.00,,,0.25,weatherlink.com 1.10,2013-06-28 00:52:00,
2013-06-27 21:22:00,74.6,69.0,29.65,SSW,210,1.0,2.0,82,0.00,,,0.25,weatherlink.com 1.10,2013-06-28 01:22:00,
2013-06-27 21:37:00,74.8,69.0,29.65,South,172,2.0,5.0,81,0.00,,,0.25,weatherlink.com 1.10,2013-06-28 01:37:00,
2013-06-27 21:52:00,74.4,69.0,29.65,SSE,158,1.0,4.0,82,0.00,,,0.25,weatherlink.com 1.10,2013-06-28 01:52:00,
2013-06-27 22:07:00,73.9,69.0,29.66,South,190,1.0,2.0,83,0.00,,,0.25,weatherlink.com 1.10,2013-06-28 02:07:00,
2013-06-27 22:52:00,74.1,68.0,29.65,SSE,150,4.0,8.0,80,0.00,,,0.25,weatherlink.com 1.10,2013-06-28 02:52:00,
2013-06-27 23:07:00,74.2,67.0,29.64,SSE,148,2.0,8.0,79,0.00,,,0.25,weatherlink.com 1.10,2013-06-28 03:07:00,
2013-06-27 23:22:00,74.1,67.0,29.64,SSE,159,4.0,5.0,79,0.00,,,0.25,weatherlink.com 1.10,2013-06-28 03:22:00,
2013-06-27 23:37:00,73.9,67.0,29.64,SE,145,4.0,8.0,79,0.00,,,0.25,weatherlink.com 1.10,2013-06-28 03:37:00,
2013-06-27 23:52:00,73.5,67.0,29.64,SSE,161,2.0,8.0,79,0.00,,,0.25,weatherlink.com 1.10,2013-06-28 03:52:00,